createdAt,value
2022-08-27T00:00:24.749Z,19.35
2022-08-27T00:03:05.366Z,19.29
2022-08-27T00:05:33.853Z,19.23
2022-08-27T00:08:04.841Z,19.15
2022-08-27T00:10:34.123Z,19.08
2022-08-27T00:13:02.112Z,18.98
2022-08-27T00:15:32.797Z,18.89
2022-08-27T00:18:00.927Z,18.77
2022-08-27T00:20:28.866Z,18.71
2022-08-27T00:22:57.045Z,18.59
2022-08-27T00:25:25.599Z,18.49
2022-08-27T00:27:54.047Z,18.40
2022-08-27T00:30:24.062Z,18.27
2022-08-27T00:32:52.147Z,18.16
2022-08-27T00:35:23.580Z,18.06
2022-08-27T00:37:52.134Z,18.00
2022-08-27T00:40:22.376Z,17.95
2022-08-27T00:42:50.496Z,17.91
2022-08-27T00:45:22.181Z,17.83
2022-08-27T00:47:54.659Z,17.74
2022-08-27T00:50:33.547Z,17.64
2022-08-27T00:53:28.198Z,17.53
2022-08-27T00:56:02.610Z,17.46
2022-08-27T00:58:37.369Z,17.46
2022-08-27T01:01:08.346Z,17.51
2022-08-27T01:03:36.676Z,17.59
2022-08-27T01:06:10.097Z,17.68
2022-08-27T01:08:42.520Z,17.77
2022-08-27T01:11:11.798Z,17.86
2022-08-27T01:13:59.376Z,17.98
2022-08-27T01:16:36.615Z,18.08
2022-08-27T01:19:09.744Z,18.15
2022-08-27T01:22:05.917Z,18.24
2022-08-27T01:24:34.063Z,18.30
2022-08-27T01:27:05.151Z,18.31
2022-08-27T01:29:37.459Z,18.29
2022-08-27T01:32:13.515Z,18.25
2022-08-27T01:34:42.315Z,18.21
2022-08-27T01:37:11.495Z,18.14
2022-08-27T01:39:42.234Z,18.10
2022-08-27T01:42:34.649Z,18.05
2022-08-27T01:45:08.698Z,18.00
2022-08-27T01:47:37.583Z,17.95
2022-08-27T01:50:18.747Z,17.85
2022-08-27T01:52:47.064Z,17.75
2022-08-27T01:55:18.716Z,17.63
2022-08-27T01:57:47.211Z,17.50
2022-08-27T02:00:22.804Z,17.39
2022-08-27T02:02:51.782Z,17.35
2022-08-27T02:05:20.775Z,17.36
2022-08-27T02:07:49.380Z,17.41
2022-08-27T02:10:21.628Z,17.48
2022-08-27T02:12:50.122Z,17.52
2022-08-27T02:15:18.247Z,17.53
2022-08-27T02:17:46.973Z,17.54
2022-08-27T02:20:15.345Z,17.55
2022-08-27T02:22:44.484Z,17.54
2022-08-27T02:25:16.508Z,17.54
2022-08-27T02:27:44.473Z,17.55
2022-08-27T02:30:15.254Z,17.57
2022-08-27T02:32:43.563Z,17.57
2022-08-27T02:35:11.524Z,17.56
2022-08-27T02:37:39.477Z,17.54
2022-08-27T02:40:09.298Z,17.52
2022-08-27T02:42:38.212Z,17.49
2022-08-27T02:45:08.252Z,17.46
2022-08-27T02:47:36.335Z,17.43
2022-08-27T02:50:04.745Z,17.41
2022-08-27T02:52:32.743Z,17.43
2022-08-27T02:55:00.751Z,17.45
2022-08-27T02:57:28.796Z,17.45
2022-08-27T02:59:57.021Z,17.44
2022-08-27T03:02:25.906Z,17.41
2022-08-27T03:04:55.783Z,17.38
2022-08-27T03:07:24.518Z,17.34
2022-08-27T03:09:52.923Z,17.29
2022-08-27T03:12:22.720Z,17.28
2022-08-27T03:14:52.762Z,17.28
2022-08-27T03:17:39.811Z,17.28
2022-08-27T03:20:11.323Z,17.33
2022-08-27T03:22:40.502Z,17.39
2022-08-27T03:25:10.083Z,17.47
2022-08-27T03:27:38.710Z,17.48
2022-08-27T03:30:11.041Z,17.46
2022-08-27T03:32:39.605Z,17.45
2022-08-27T03:35:08.416Z,17.42
2022-08-27T03:37:36.630Z,17.40
2022-08-27T03:40:07.170Z,17.36
2022-08-27T03:42:36.260Z,17.32
2022-08-27T03:45:04.667Z,17.30
2022-08-27T03:47:33.331Z,17.30
2022-08-27T03:50:01.956Z,17.34
2022-08-27T03:52:29.953Z,17.40
2022-08-27T03:54:59.146Z,17.43
2022-08-27T03:57:27.319Z,17.40
2022-08-27T03:59:55.588Z,17.36
2022-08-27T04:02:23.658Z,17.31
2022-08-27T04:04:51.769Z,17.28
2022-08-27T04:07:20.226Z,17.26
2022-08-27T04:09:48.170Z,17.21
2022-08-27T04:12:16.115Z,17.14
2022-08-27T04:14:44.130Z,17.08
2022-08-27T04:17:12.098Z,17.03
2022-08-27T04:19:40.032Z,17.00
2022-08-27T04:22:08.308Z,16.99
2022-08-27T04:24:38.282Z,16.95
2022-08-27T04:27:07.080Z,16.87
2022-08-27T04:29:35.334Z,16.79
2022-08-27T04:32:04.953Z,16.72
2022-08-27T04:34:33.441Z,16.69
2022-08-27T04:37:01.461Z,16.68
2022-08-27T04:39:30.308Z,16.69
2022-08-27T04:42:02.068Z,16.68
2022-08-27T04:44:32.927Z,16.68
2022-08-27T04:47:04.335Z,16.70
2022-08-27T04:49:34.100Z,16.74
2022-08-27T04:52:03.286Z,16.77
2022-08-27T04:54:32.949Z,16.82
2022-08-27T04:57:04.056Z,16.84
2022-08-27T04:59:33.200Z,16.83
2022-08-27T05:02:04.729Z,16.82
2022-08-27T05:04:36.159Z,16.87
2022-08-27T05:07:04.846Z,16.94
2022-08-27T05:09:34.548Z,17.04
2022-08-27T05:12:02.750Z,17.16
2022-08-27T05:14:32.451Z,17.28
2022-08-27T05:17:00.964Z,17.40
2022-08-27T05:19:29.112Z,17.53
2022-08-27T05:21:57.260Z,17.67
2022-08-27T05:24:25.277Z,17.78
2022-08-27T05:26:53.278Z,17.89
2022-08-27T05:29:22.412Z,18.01
2022-08-27T05:31:50.530Z,18.12
2022-08-27T05:34:25.822Z,18.24
2022-08-27T05:36:54.993Z,18.37
2022-08-27T05:39:23.355Z,18.48
2022-08-27T05:41:53.089Z,18.59
2022-08-27T05:47:09.268Z,18.92
2022-08-27T05:49:37.887Z,19.06
2022-08-27T05:52:10.826Z,19.17
2022-08-27T05:54:39.985Z,19.26
2022-08-27T05:57:08.188Z,19.35
2022-08-27T05:59:55.367Z,19.45
2022-08-27T06:02:23.504Z,19.56
2022-08-27T06:04:51.756Z,19.64
2022-08-27T06:07:19.769Z,19.72
2022-08-27T06:09:47.813Z,19.79
2022-08-27T06:12:15.888Z,19.83
2022-08-27T06:14:43.883Z,19.87
2022-08-27T06:17:11.982Z,19.95
2022-08-27T06:19:42.530Z,20.02
2022-08-27T06:22:11.033Z,20.10
2022-08-27T06:24:42.040Z,20.21
2022-08-27T06:27:14.141Z,20.30
2022-08-27T06:29:42.786Z,20.37
2022-08-27T06:32:12.368Z,20.47
2022-08-27T06:34:40.566Z,20.54
2022-08-27T06:37:09.146Z,20.63
2022-08-27T06:39:39.780Z,20.70
2022-08-27T06:42:12.114Z,20.78
2022-08-27T06:44:41.950Z,20.86
2022-08-27T06:47:10.861Z,20.98
2022-08-27T06:49:40.982Z,21.06
2022-08-27T06:52:09.346Z,21.15
2022-08-27T06:54:37.768Z,21.27
2022-08-27T06:57:05.783Z,21.42
2022-08-27T06:59:33.702Z,21.54
2022-08-27T07:02:01.739Z,21.61
2022-08-27T07:04:32.294Z,21.64
2022-08-27T07:07:02.831Z,21.73
2022-08-27T07:09:34.792Z,21.83
2022-08-27T07:12:03.037Z,21.91
2022-08-27T07:14:37.161Z,21.95
2022-08-27T07:17:10.873Z,22.00
2022-08-27T07:19:40.781Z,22.05
2022-08-27T07:22:09.454Z,22.14
2022-08-27T07:24:38.309Z,22.21
2022-08-27T07:27:07.029Z,22.32
2022-08-27T07:29:35.482Z,22.46
2022-08-27T07:32:03.795Z,22.59
2022-08-27T07:34:31.851Z,22.68
2022-08-27T07:36:59.763Z,22.78
2022-08-27T07:39:27.786Z,22.85
2022-08-27T07:42:16.536Z,22.91
2022-08-27T07:44:44.775Z,23.00
2022-08-27T07:47:13.877Z,23.05
2022-08-27T07:49:42.024Z,23.08
2022-08-27T07:52:10.083Z,23.16
2022-08-27T07:54:38.082Z,23.26
2022-08-27T07:57:06.037Z,23.28
2022-08-27T07:59:35.536Z,23.37
2022-08-27T08:02:04.145Z,23.50
2022-08-27T08:04:32.079Z,23.65
2022-08-27T08:07:00.091Z,23.79
2022-08-27T08:09:28.277Z,23.93
2022-08-27T08:11:56.328Z,24.04
2022-08-27T08:14:32.289Z,24.15
2022-08-27T08:17:02.454Z,24.25
2022-08-27T08:19:33.133Z,24.36
2022-08-27T08:22:05.360Z,24.52
2022-08-27T08:24:36.669Z,24.64
2022-08-27T08:27:07.343Z,24.76
2022-08-27T08:29:36.068Z,24.89
2022-08-27T08:32:06.747Z,25.04
2022-08-27T08:34:36.218Z,25.15
2022-08-27T08:37:06.411Z,25.29
2022-08-27T08:39:36.666Z,25.42
2022-08-27T08:42:07.554Z,25.53
2022-08-27T08:44:40.689Z,25.57
2022-08-27T08:47:31.591Z,25.58
2022-08-27T08:50:17.916Z,25.59
2022-08-27T08:53:00.859Z,25.63
2022-08-27T08:55:42.180Z,25.73
2022-08-27T08:58:13.470Z,25.88
2022-08-27T09:00:44.376Z,26.03
2022-08-27T09:03:15.295Z,26.17
2022-08-27T09:05:49.833Z,26.31
2022-08-27T09:08:35.249Z,26.40
2022-08-27T09:11:26.463Z,26.53
2022-08-27T09:14:17.619Z,26.68
2022-08-27T09:16:45.655Z,26.86
2022-08-27T09:19:14.874Z,26.99
2022-08-27T09:22:01.282Z,27.09
2022-08-27T09:24:52.992Z,27.11
2022-08-27T09:27:22.345Z,27.23
2022-08-27T09:29:54.240Z,27.26
2022-08-27T09:33:13.727Z,27.26
2022-08-27T09:35:44.994Z,27.36
2022-08-27T09:38:29.798Z,27.51
2022-08-27T09:41:09.925Z,27.58
2022-08-27T09:43:39.394Z,27.49
2022-08-27T09:46:21.770Z,27.51
2022-08-27T09:48:53.069Z,27.62
2022-08-27T09:51:25.856Z,27.77
2022-08-27T09:54:02.328Z,27.81
2022-08-27T09:56:47.415Z,27.73
2022-08-27T09:59:23.040Z,27.72
2022-08-27T10:02:06.696Z,27.68
2022-08-27T10:04:52.846Z,27.72
2022-08-27T10:07:33.641Z,27.77
2022-08-27T10:10:20.211Z,27.75
2022-08-27T10:13:22.014Z,27.75
2022-08-27T10:16:10.012Z,27.73
2022-08-27T10:18:58.108Z,27.81
2022-08-27T10:21:45.249Z,27.80
2022-08-27T10:24:44.234Z,27.67
2022-08-27T10:27:45.571Z,27.66
2022-08-27T10:30:25.140Z,27.58
2022-08-27T10:33:01.207Z,27.65
2022-08-27T10:35:46.873Z,27.60
2022-08-27T10:38:40.045Z,27.61
2022-08-27T10:41:55.261Z,27.69
2022-08-27T10:44:42.900Z,27.65
2022-08-27T10:47:34.994Z,27.58
2022-08-27T10:50:08.918Z,27.63
2022-08-27T10:52:54.362Z,27.73
2022-08-27T10:55:27.647Z,27.90
2022-08-27T10:58:26.306Z,27.98
2022-08-27T11:01:00.667Z,28.19
2022-08-27T11:03:38.047Z,28.28
2022-08-27T11:06:19.204Z,28.25
2022-08-27T11:08:55.048Z,28.28
2022-08-27T11:14:37.871Z,28.21
2022-08-27T11:17:22.055Z,28.34
2022-08-27T11:20:01.794Z,28.36
2022-08-27T11:22:37.928Z,28.29
2022-08-27T11:25:30.519Z,28.36
2022-08-27T11:28:01.104Z,28.57
2022-08-27T11:30:42.254Z,28.73
2022-08-27T11:33:19.016Z,28.76
2022-08-27T11:36:17.373Z,28.82
2022-08-27T11:39:00.337Z,29.02
2022-08-27T11:41:53.632Z,29.24
2022-08-27T11:44:25.381Z,29.34
2022-08-27T11:47:08.342Z,29.40
2022-08-27T11:49:47.965Z,29.56
2022-08-27T11:52:37.719Z,29.70
2022-08-27T11:55:25.460Z,29.76
2022-08-27T11:58:18.760Z,29.71
2022-08-27T12:00:48.826Z,29.69
2022-08-27T12:03:19.835Z,29.98
2022-08-27T12:05:54.099Z,30.31
2022-08-27T12:08:22.073Z,30.71
2022-08-27T12:11:11.914Z,30.96
2022-08-27T12:13:45.972Z,31.11
2022-08-27T12:16:13.935Z,31.41
2022-08-27T12:18:56.793Z,31.69
2022-08-27T12:21:30.946Z,31.90
2022-08-27T12:24:07.654Z,31.88
2022-08-27T12:26:42.960Z,31.85
2022-08-27T12:29:46.034Z,31.93
2022-08-27T12:32:31.764Z,32.24
2022-08-27T12:35:11.040Z,32.46
2022-08-27T12:37:47.693Z,32.71
2022-08-27T12:40:24.815Z,32.89
2022-08-27T12:43:09.151Z,32.93
2022-08-27T12:46:00.678Z,32.92
2022-08-27T12:48:33.625Z,33.09
2022-08-27T12:51:04.309Z,33.25
2022-08-27T12:53:44.932Z,33.28
2022-08-27T12:56:46.977Z,33.37
2022-08-27T12:59:24.320Z,33.52
2022-08-27T13:01:59.651Z,33.63
2022-08-27T13:04:31.795Z,33.49
2022-08-27T13:07:00.501Z,33.41
2022-08-27T13:09:33.521Z,33.42
2022-08-27T13:12:04.619Z,33.39
2022-08-27T13:14:39.359Z,33.50
2022-08-27T13:17:14.781Z,33.75
2022-08-27T13:19:57.210Z,33.86
2022-08-27T13:22:29.512Z,34.00
2022-08-27T13:25:02.945Z,34.04
2022-08-27T13:27:34.645Z,34.20
2022-08-27T13:30:18.127Z,34.37
2022-08-27T13:33:02.308Z,34.35
2022-08-27T13:35:32.732Z,34.32
2022-08-27T13:38:02.774Z,34.53
2022-08-27T13:40:32.574Z,34.52
2022-08-27T13:43:09.294Z,34.41
2022-08-27T13:45:40.591Z,34.44
2022-08-27T13:48:11.834Z,34.29
2022-08-27T13:50:50.079Z,34.28
2022-08-27T13:53:44.096Z,34.30
2022-08-27T13:56:24.001Z,34.30
2022-08-27T13:58:52.033Z,34.35
2022-08-27T14:01:27.879Z,34.36
2022-08-27T14:04:06.512Z,34.28
2022-08-27T14:06:43.309Z,34.09
2022-08-27T14:09:28.020Z,34.01
2022-08-27T14:12:03.627Z,33.96
2022-08-27T14:14:42.011Z,34.11
2022-08-27T14:17:38.270Z,34.16
2022-08-27T14:20:07.467Z,33.91
2022-08-27T14:22:37.576Z,33.62
2022-08-27T14:25:06.145Z,33.23
2022-08-27T14:27:36.741Z,32.95
2022-08-27T14:30:07.480Z,32.75
2022-08-27T14:32:36.298Z,32.48
2022-08-27T14:35:04.928Z,32.17
2022-08-27T14:37:33.018Z,31.66
2022-08-27T14:40:01.118Z,31.13
2022-08-27T14:42:29.312Z,30.19
2022-08-27T14:44:57.340Z,29.36
2022-08-27T14:47:33.240Z,28.54
2022-08-27T14:50:02.101Z,27.99
2022-08-27T14:52:30.333Z,27.43
2022-08-27T14:54:58.450Z,27.03
2022-08-27T14:57:26.758Z,26.74
2022-08-27T14:59:54.744Z,26.52
2022-08-27T15:02:23.431Z,26.27
2022-08-27T15:04:51.814Z,26.09
2022-08-27T15:07:22.756Z,25.93
2022-08-27T15:09:51.766Z,25.76
2022-08-27T15:12:26.129Z,25.65
2022-08-27T15:14:56.211Z,25.57
2022-08-27T15:17:34.587Z,25.47
2022-08-27T15:20:11.817Z,25.38
2022-08-27T15:22:51.039Z,25.31
2022-08-27T15:25:22.480Z,25.23
2022-08-27T15:27:51.574Z,25.15
2022-08-27T15:30:26.415Z,25.09
2022-08-27T15:32:55.486Z,25.00
2022-08-27T15:35:26.891Z,24.94
2022-08-27T15:37:57.176Z,24.85
2022-08-27T15:40:27.391Z,24.76
2022-08-27T15:42:59.967Z,24.69
2022-08-27T15:45:28.961Z,24.64
2022-08-27T15:48:01.179Z,24.63
2022-08-27T15:50:31.384Z,24.62
2022-08-27T15:53:03.114Z,24.62
2022-08-27T15:55:34.450Z,24.63
2022-08-27T15:58:03.281Z,24.65
2022-08-27T16:00:34.860Z,24.67
2022-08-27T16:03:07.635Z,24.65
2022-08-27T16:05:37.959Z,24.66
2022-08-27T16:08:06.693Z,24.68
2022-08-27T16:10:35.352Z,24.70
2022-08-27T16:13:03.570Z,24.68
2022-08-27T16:15:34.320Z,24.67
2022-08-27T16:18:04.642Z,24.63
2022-08-27T16:20:32.866Z,24.60
2022-08-27T16:23:01.371Z,24.56
2022-08-27T16:25:29.481Z,24.54
2022-08-27T16:28:01.079Z,24.52
2022-08-27T16:30:29.169Z,24.49
2022-08-27T16:32:57.467Z,24.45
2022-08-27T16:35:25.405Z,24.43
2022-08-27T16:37:53.380Z,24.40
2022-08-27T16:40:22.728Z,24.37
2022-08-27T16:42:52.160Z,24.31
2022-08-27T16:45:23.136Z,24.28
2022-08-27T16:48:20.674Z,24.25
2022-08-27T16:50:48.641Z,24.18
2022-08-27T16:53:18.928Z,24.14
2022-08-27T16:55:47.533Z,24.11
2022-08-27T16:58:20.045Z,24.08
2022-08-27T17:00:55.735Z,24.05
2022-08-27T17:03:26.030Z,23.92
2022-08-27T17:05:54.573Z,23.82
2022-08-27T17:08:26.651Z,23.76
2022-08-27T17:10:56.778Z,23.64
2022-08-27T17:13:28.399Z,23.47
2022-08-27T17:15:57.186Z,23.42
2022-08-27T17:18:27.919Z,23.42
2022-08-27T17:20:57.763Z,23.39
2022-08-27T17:23:40.098Z,23.33
2022-08-27T17:26:11.313Z,23.27
2022-08-27T17:28:41.103Z,23.22
2022-08-27T17:31:16.807Z,23.16
2022-08-27T17:33:59.423Z,23.06
2022-08-27T17:36:30.403Z,22.95
2022-08-27T17:38:59.031Z,22.86
2022-08-27T17:41:36.919Z,22.78
2022-08-27T17:44:31.817Z,22.69
2022-08-27T17:47:02.913Z,22.57
2022-08-27T17:49:31.569Z,22.49
2022-08-27T17:52:09.840Z,22.39
2022-08-27T17:54:44.444Z,22.34
2022-08-27T17:57:40.508Z,22.31
2022-08-27T18:00:12.828Z,22.23
2022-08-27T18:02:47.553Z,22.17
2022-08-27T18:05:18.322Z,22.11
2022-08-27T18:07:46.850Z,22.07
2022-08-27T18:10:19.855Z,22.09
2022-08-27T18:12:48.015Z,22.14
2022-08-27T18:15:32.538Z,22.19
2022-08-27T18:18:01.814Z,22.18
2022-08-27T18:20:31.879Z,22.16
2022-08-27T18:23:01.024Z,22.16
2022-08-27T18:25:35.793Z,22.18
2022-08-27T18:28:08.516Z,22.19
2022-08-27T18:30:39.742Z,22.19
2022-08-27T18:33:08.245Z,22.16
2022-08-27T18:35:37.544Z,22.09
2022-08-27T18:38:06.672Z,22.04
2022-08-27T18:40:47.411Z,22.03
2022-08-27T18:43:16.912Z,22.02
2022-08-27T18:45:46.087Z,21.97
2022-08-27T18:48:21.866Z,21.82
2022-08-27T18:50:57.197Z,21.69
2022-08-27T18:53:28.625Z,21.61
2022-08-27T18:55:56.647Z,21.53
2022-08-27T18:58:25.672Z,21.53
2022-08-27T19:00:57.249Z,21.51
2022-08-27T19:03:29.851Z,21.50
2022-08-27T19:05:58.542Z,21.49
2022-08-27T19:08:28.977Z,21.46
2022-08-27T19:10:57.140Z,21.26
2022-08-27T19:13:25.076Z,20.98
2022-08-27T19:15:58.755Z,20.63
2022-08-27T19:18:28.935Z,20.31
2022-08-27T19:20:58.374Z,20.06
2022-08-27T19:23:26.812Z,19.96
2022-08-27T19:25:55.354Z,19.89
2022-08-27T19:28:27.220Z,19.80
2022-08-27T19:30:55.317Z,19.72
2022-08-27T19:33:23.777Z,19.70
2022-08-27T19:35:52.472Z,19.66
2022-08-27T19:38:21.706Z,19.58
2022-08-27T19:40:49.760Z,19.57
2022-08-27T19:43:18.003Z,19.56
2022-08-27T19:45:46.064Z,19.50
2022-08-27T19:48:16.965Z,19.45
2022-08-27T19:50:45.077Z,19.43
2022-08-27T19:53:13.242Z,19.37
2022-08-27T19:55:45.682Z,19.30
2022-08-27T19:58:15.430Z,19.30
2022-08-27T20:00:44.935Z,19.31
2022-08-27T20:03:13.232Z,19.28
2022-08-27T20:05:41.713Z,19.26
2022-08-27T20:08:09.751Z,19.26
2022-08-27T20:10:41.420Z,19.24
2022-08-27T20:13:09.499Z,19.23
2022-08-27T20:15:38.107Z,19.22
2022-08-27T20:18:06.893Z,19.18
2022-08-27T20:20:38.139Z,19.16
2022-08-27T20:23:06.958Z,19.15
2022-08-27T20:25:36.452Z,19.15
2022-08-27T20:28:28.321Z,19.16
2022-08-27T20:30:58.345Z,19.19
2022-08-27T20:33:27.209Z,19.24
2022-08-27T20:35:56.749Z,19.27
2022-08-27T20:38:25.093Z,19.25
2022-08-27T20:40:53.068Z,19.25
2022-08-27T20:43:21.011Z,19.24
2022-08-27T20:45:49.095Z,19.22
2022-08-27T20:48:17.254Z,19.21
2022-08-27T20:50:46.156Z,19.22
2022-08-27T20:53:14.140Z,19.22
2022-08-27T20:55:42.167Z,19.21
2022-08-27T20:58:28.834Z,19.23
2022-08-27T21:00:58.835Z,19.22
2022-08-27T21:03:26.838Z,19.22
2022-08-27T21:05:54.777Z,19.24
2022-08-27T21:08:23.496Z,19.25
2022-08-27T21:10:55.203Z,19.26
2022-08-27T21:13:24.688Z,19.25
2022-08-27T21:15:54.565Z,19.22
2022-08-27T21:18:29.874Z,19.21
2022-08-27T21:21:04.046Z,19.23
2022-08-27T21:23:32.452Z,19.25
2022-08-27T21:26:02.843Z,19.26
2022-08-27T21:28:31.318Z,19.29
2022-08-27T21:31:54.800Z,19.29
2022-08-27T21:34:22.869Z,19.16
2022-08-27T21:36:50.864Z,19.08
2022-08-27T21:39:18.780Z,19.04
2022-08-27T21:41:46.955Z,19.05
2022-08-27T21:44:16.098Z,19.05
2022-08-27T21:48:02.627Z,19.02
2022-08-27T21:50:30.611Z,18.98
2022-08-27T21:52:58.550Z,18.92
2022-08-27T21:55:26.447Z,18.88
2022-08-27T21:57:54.364Z,18.87
2022-08-27T22:00:28.781Z,18.81
2022-08-27T22:02:57.380Z,18.72
2022-08-27T22:05:25.470Z,18.70
2022-08-27T22:07:53.621Z,18.71
2022-08-27T22:10:21.651Z,18.72
2022-08-27T22:12:49.587Z,18.74
2022-08-27T22:15:21.225Z,18.72
2022-08-27T22:17:51.591Z,18.71
2022-08-27T22:20:20.206Z,18.75
2022-08-27T22:22:48.482Z,18.79
2022-08-27T22:25:16.855Z,18.83
2022-08-27T22:27:45.259Z,18.87
2022-08-27T22:30:14.424Z,18.88
2022-08-27T22:32:43.266Z,18.85
2022-08-27T22:35:14.073Z,18.81
2022-08-27T22:37:42.430Z,18.80
2022-08-27T22:40:19.881Z,18.80
2022-08-27T22:42:49.539Z,18.78
2022-08-27T22:45:18.829Z,18.74
2022-08-27T22:47:47.277Z,18.71
2022-08-27T22:50:16.031Z,18.71
2022-08-27T22:52:44.248Z,18.69
2022-08-27T22:55:16.315Z,18.67
2022-08-27T22:57:44.365Z,18.65
2022-08-27T23:00:20.685Z,18.59
2022-08-27T23:02:48.855Z,18.56
2022-08-27T23:05:17.214Z,18.56
2022-08-27T23:07:45.601Z,18.58
2022-08-27T23:10:19.774Z,18.60
2022-08-27T23:12:48.525Z,18.64
2022-08-27T23:15:18.281Z,18.64
2022-08-27T23:17:46.252Z,18.65
2022-08-27T23:20:15.032Z,18.66
2022-08-27T23:22:43.330Z,18.63
2022-08-27T23:25:31.252Z,18.57
2022-08-27T23:27:59.898Z,18.52
2022-08-27T23:30:28.096Z,18.49
2022-08-27T23:32:56.319Z,18.47
2022-08-27T23:35:26.291Z,18.47
2022-08-27T23:37:54.265Z,18.46
2022-08-27T23:40:25.141Z,18.47
2022-08-27T23:42:53.224Z,18.44
2022-08-27T23:45:27.795Z,18.39
2022-08-27T23:47:55.748Z,18.37
2022-08-27T23:50:34.231Z,18.33
2022-08-27T23:53:05.097Z,18.31
2022-08-27T23:55:33.897Z,18.31
2022-08-27T23:58:02.662Z,18.28
